createdAt,value
2018-10-16T00:01:41.910Z,9.67
2018-10-16T00:04:11.181Z,9.93
2018-10-16T00:06:40.168Z,8.97
2018-10-16T00:09:09.837Z,8.83
2018-10-16T00:11:42.932Z,10.00
2018-10-16T00:14:11.950Z,9.90
2018-10-16T00:16:40.859Z,9.00
2018-10-16T00:19:09.557Z,8.63
2018-10-16T00:21:39.471Z,10.20
2018-10-16T00:24:08.083Z,10.13
2018-10-16T00:26:38.968Z,10.63
2018-10-16T00:29:08.312Z,9.97
2018-10-16T00:31:37.461Z,10.50
2018-10-16T00:34:06.860Z,9.93
2018-10-16T00:36:36.465Z,10.10
2018-10-16T00:39:07.050Z,9.57
2018-10-16T00:41:36.450Z,8.93
2018-10-16T00:44:05.867Z,8.87
2018-10-16T00:46:34.726Z,9.07
2018-10-16T00:49:04.944Z,9.43
2018-10-16T00:51:34.416Z,9.77
2018-10-16T00:54:05.476Z,9.10
2018-10-16T00:56:34.095Z,9.50
2018-10-16T00:59:02.796Z,10.00
2018-10-16T01:01:32.836Z,9.37
2018-10-16T01:04:03.315Z,10.53
2018-10-16T01:06:33.275Z,9.37
2018-10-16T01:09:02.667Z,9.67
2018-10-16T01:11:32.072Z,8.60
2018-10-16T01:14:01.070Z,9.10
2018-10-16T01:16:29.801Z,9.80
2018-10-16T01:18:58.572Z,10.23
2018-10-16T01:21:27.876Z,9.60
2018-10-16T01:23:56.938Z,8.53
2018-10-16T01:26:25.897Z,10.00
2018-10-16T01:28:54.621Z,9.13
2018-10-16T01:31:23.821Z,9.23
2018-10-16T01:33:52.882Z,9.47
2018-10-16T01:36:21.645Z,9.37
2018-10-16T01:38:50.418Z,9.37
2018-10-16T01:41:19.243Z,8.57
2018-10-16T01:43:48.741Z,8.40
2018-10-16T01:46:17.970Z,8.80
2018-10-16T01:48:46.939Z,9.30
2018-10-16T01:51:15.660Z,9.70
2018-10-16T01:53:44.377Z,9.60
2018-10-16T01:56:13.214Z,8.73
2018-10-16T01:58:42.205Z,9.07
2018-10-16T02:01:11.466Z,9.10
2018-10-16T02:03:40.686Z,11.00
2018-10-16T02:06:09.503Z,9.33
2018-10-16T02:08:38.291Z,9.70
2018-10-16T02:11:08.076Z,9.47
2018-10-16T02:13:36.697Z,8.83
2018-10-16T02:16:05.808Z,9.00
2018-10-16T02:18:36.028Z,9.20
2018-10-16T02:21:05.420Z,9.30
2018-10-16T02:23:34.216Z,8.80
2018-10-16T02:26:02.901Z,10.40
2018-10-16T02:28:31.887Z,9.23
2018-10-16T02:31:01.039Z,10.17
2018-10-16T02:33:29.958Z,9.13
2018-10-16T02:35:58.697Z,9.13
2018-10-16T02:38:27.522Z,9.47
2018-10-16T02:40:57.922Z,9.53
2018-10-16T02:43:26.687Z,9.00
2018-10-16T02:45:55.572Z,10.43
2018-10-16T02:48:24.816Z,9.27
2018-10-16T02:50:53.892Z,9.70
2018-10-16T02:53:23.513Z,9.37
2018-10-16T02:55:52.268Z,8.27
2018-10-16T02:58:21.808Z,10.70
2018-10-16T03:00:50.786Z,9.23
2018-10-16T03:03:19.912Z,9.97
2018-10-16T03:05:48.738Z,8.67
2018-10-16T03:08:18.407Z,8.33
2018-10-16T03:10:47.619Z,8.60
2018-10-16T03:13:16.805Z,8.67
2018-10-16T03:15:45.496Z,9.33
2018-10-16T03:18:14.431Z,9.00
2018-10-16T03:20:43.246Z,8.60
2018-10-16T03:23:11.821Z,9.23
2018-10-16T03:25:40.455Z,9.07
2018-10-16T03:28:09.311Z,8.10
2018-10-16T03:30:38.216Z,10.30
2018-10-16T03:33:07.057Z,8.53
2018-10-16T03:35:36.566Z,8.97
2018-10-16T03:38:06.147Z,10.50
2018-10-16T03:40:35.120Z,9.20
2018-10-16T03:43:04.016Z,9.30
2018-10-16T03:45:32.917Z,8.47
2018-10-16T03:48:01.798Z,9.77
2018-10-16T03:50:30.552Z,9.10
2018-10-16T03:52:59.483Z,9.60
2018-10-16T03:55:28.438Z,9.47
2018-10-16T03:57:59.965Z,8.90
2018-10-16T04:00:29.085Z,10.37
2018-10-16T04:02:58.456Z,8.87
2018-10-16T04:05:27.367Z,9.00
2018-10-16T04:07:55.976Z,8.60
2018-10-16T04:10:26.355Z,8.90
2018-10-16T04:12:55.296Z,9.00
2018-10-16T04:15:24.172Z,8.53
2018-10-16T04:17:54.038Z,9.63
2018-10-16T04:20:22.791Z,9.40
2018-10-16T04:22:51.447Z,8.17
2018-10-16T04:25:20.052Z,8.83
2018-10-16T04:27:50.287Z,8.33
2018-10-16T04:30:19.538Z,8.30
2018-10-16T04:32:49.147Z,9.50
2018-10-16T04:35:18.523Z,10.00
2018-10-16T04:37:47.772Z,8.97
2018-10-16T04:40:16.728Z,8.57
2018-10-16T04:42:46.088Z,9.43
2018-10-16T04:45:15.611Z,9.60
2018-10-16T04:47:45.475Z,8.63
2018-10-16T04:50:14.337Z,9.13
2018-10-16T04:52:43.032Z,9.10
2018-10-16T04:55:12.221Z,9.70
2018-10-16T04:57:42.600Z,8.90
2018-10-16T05:00:11.760Z,8.70
2018-10-16T05:02:41.681Z,10.73
2018-10-16T05:05:17.427Z,9.40
2018-10-16T05:07:46.062Z,9.60
2018-10-16T05:10:15.444Z,9.70
2018-10-16T05:12:44.501Z,8.87
2018-10-16T05:15:22.755Z,8.37
2018-10-16T05:17:52.783Z,9.20
2018-10-16T05:20:22.462Z,9.20
2018-10-16T05:22:51.225Z,9.03
2018-10-16T05:25:20.574Z,8.67
2018-10-16T05:27:50.417Z,9.43
2018-10-16T05:30:19.112Z,9.80
2018-10-16T05:32:48.060Z,9.97
2018-10-16T05:35:17.697Z,9.00
2018-10-16T05:37:46.530Z,8.83
2018-10-16T05:40:15.821Z,9.00
2018-10-16T05:42:44.745Z,9.30
2018-10-16T05:45:15.093Z,10.20
2018-10-16T05:47:45.913Z,10.20
2018-10-16T05:50:15.418Z,9.97
2018-10-16T05:52:44.670Z,9.43
2018-10-16T05:55:13.919Z,9.80
2018-10-16T05:57:42.768Z,9.20
2018-10-16T06:00:23.332Z,7.87
2018-10-16T06:02:51.982Z,9.40
2018-10-16T06:05:20.802Z,9.03
2018-10-16T06:07:49.760Z,8.70
2018-10-16T06:10:18.468Z,9.17
2018-10-16T06:12:49.563Z,9.57
2018-10-16T06:15:18.647Z,9.03
2018-10-16T06:17:47.653Z,9.47
2018-10-16T06:20:16.867Z,8.43
2018-10-16T06:22:46.033Z,8.57
2018-10-16T06:25:14.976Z,8.80
2018-10-16T06:27:44.061Z,9.30
2018-10-16T06:30:13.230Z,9.80
2018-10-16T06:32:41.993Z,8.70
2018-10-16T06:35:11.739Z,11.50
2018-10-16T06:37:41.648Z,19.30
2018-10-16T06:40:11.148Z,16.43
2018-10-16T06:42:40.332Z,16.80
2018-10-16T06:45:10.698Z,13.10
2018-10-16T06:47:39.562Z,18.33
2018-10-16T06:50:09.746Z,23.20
2018-10-16T06:52:38.657Z,19.30
2018-10-16T06:55:07.684Z,24.90
2018-10-16T06:57:36.477Z,15.87
2018-10-16T07:00:06.460Z,11.33
2018-10-16T07:02:35.486Z,11.30
2018-10-16T07:05:04.907Z,12.80
2018-10-16T07:07:34.294Z,11.30
2018-10-16T07:10:03.284Z,10.47
2018-10-16T07:12:32.237Z,11.30
2018-10-16T07:15:01.012Z,10.90
2018-10-16T07:17:29.932Z,11.30
2018-10-16T07:20:00.618Z,11.17
2018-10-16T07:22:29.554Z,20.77
2018-10-16T07:24:58.488Z,11.33
2018-10-16T07:27:27.995Z,10.83
2018-10-16T07:29:57.116Z,11.03
2018-10-16T07:32:25.863Z,11.80
2018-10-16T07:34:54.678Z,11.50
2018-10-16T07:37:23.683Z,10.70
2018-10-16T07:39:52.915Z,11.33
2018-10-16T07:42:22.500Z,13.60
2018-10-16T07:44:51.462Z,13.10
2018-10-16T07:47:20.270Z,11.83
2018-10-16T07:49:49.034Z,12.80
2018-10-16T07:52:17.842Z,10.80
2018-10-16T07:54:47.303Z,10.80
2018-10-16T07:57:16.757Z,10.73
2018-10-16T07:59:45.390Z,11.70
2018-10-16T08:02:15.108Z,10.10
2018-10-16T08:04:44.253Z,10.23
2018-10-16T08:07:13.053Z,9.77
2018-10-16T08:09:41.807Z,11.37
2018-10-16T08:12:10.999Z,10.20
2018-10-16T08:14:41.285Z,10.37
2018-10-16T08:17:09.988Z,9.60
2018-10-16T08:19:38.538Z,10.30
2018-10-16T08:22:07.358Z,9.73
2018-10-16T08:24:36.982Z,9.20
2018-10-16T08:27:06.177Z,8.80
2018-10-16T08:29:35.028Z,10.23
2018-10-16T08:32:04.636Z,9.47
2018-10-16T08:34:33.416Z,9.40
2018-10-16T08:37:02.132Z,8.87
2018-10-16T08:39:33.402Z,8.37
2018-10-16T08:43:40.090Z,8.73
2018-10-16T08:46:20.012Z,8.53
2018-10-16T08:49:00.175Z,8.43
2018-10-16T08:51:48.162Z,7.27
2018-10-16T08:54:16.958Z,7.37
2018-10-16T08:56:46.255Z,7.00
2018-10-16T08:59:15.008Z,6.60
2018-10-16T09:01:43.819Z,6.37
2018-10-16T09:04:12.937Z,6.53
2018-10-16T09:06:41.643Z,6.55
2018-10-16T09:09:13.349Z,6.17
2018-10-16T09:11:43.560Z,5.90
2018-10-16T09:14:12.723Z,5.70
2018-10-16T09:16:41.595Z,18.23
2018-10-16T09:19:11.134Z,5.33
2018-10-16T09:21:39.959Z,5.58
2018-10-16T09:24:08.630Z,5.17
2018-10-16T09:26:37.430Z,5.15
2018-10-16T09:29:07.178Z,5.50
2018-10-16T09:31:36.251Z,4.58
2018-10-16T09:34:05.449Z,5.12
2018-10-16T09:36:34.738Z,5.78
2018-10-16T09:39:03.775Z,5.12
2018-10-16T09:41:32.923Z,5.70
2018-10-16T09:44:02.005Z,5.00
2018-10-16T09:46:35.528Z,5.00
2018-10-16T09:49:04.676Z,4.55
2018-10-16T09:51:34.013Z,4.53
2018-10-16T09:54:03.179Z,4.40
2018-10-16T09:56:32.348Z,4.40
2018-10-16T10:38:40.973Z,3.10
2018-10-16T10:41:09.854Z,2.80
2018-10-16T10:46:07.632Z,2.85
2018-10-16T10:51:06.265Z,2.40
2018-10-16T10:53:35.701Z,2.40
2018-10-16T10:56:04.835Z,2.70
2018-10-16T10:58:33.549Z,2.50
2018-10-16T11:01:02.530Z,1.87
2018-10-16T11:03:31.566Z,2.20
2018-10-16T11:06:00.710Z,2.77
2018-10-16T11:08:30.362Z,2.25
2018-10-16T11:10:59.284Z,2.30
2018-10-16T11:13:29.368Z,2.17
2018-10-16T11:15:58.184Z,2.40
2018-10-16T11:18:26.974Z,2.25
2018-10-16T11:20:56.272Z,2.35
2018-10-16T11:25:53.814Z,2.50
2018-10-16T11:28:22.481Z,2.08
2018-10-16T11:30:52.144Z,2.07
2018-10-16T11:33:21.414Z,2.33
2018-10-16T11:35:50.138Z,2.35
2018-10-16T11:38:19.727Z,1.90
2018-10-16T11:40:48.592Z,1.70
2018-10-16T11:43:17.367Z,2.30
2018-10-16T11:45:46.941Z,2.07
2018-10-16T11:48:15.606Z,1.95
2018-10-16T11:50:44.969Z,2.60
2018-10-16T11:53:15.092Z,3.17
2018-10-16T11:55:44.258Z,2.03
2018-10-16T11:58:13.589Z,1.57
2018-10-16T12:00:42.729Z,1.90
2018-10-16T12:03:11.729Z,1.97
2018-10-16T12:05:41.158Z,2.37
2018-10-16T12:08:10.602Z,2.20
2018-10-16T12:10:39.547Z,2.65
2018-10-16T12:13:08.982Z,2.37
2018-10-16T12:15:38.228Z,2.70
2018-10-16T12:18:12.709Z,1.80
2018-10-16T12:20:44.667Z,2.02
2018-10-16T12:23:13.513Z,2.22
2018-10-16T12:25:42.686Z,2.17
2018-10-16T12:28:14.750Z,2.05
2018-10-16T12:30:44.081Z,2.08
2018-10-16T12:33:13.785Z,1.80
2018-10-16T12:35:42.510Z,2.00
2018-10-16T12:38:11.401Z,1.92
2018-10-16T12:40:40.152Z,2.40
2018-10-16T12:43:09.372Z,1.70
2018-10-16T12:45:38.461Z,1.40
2018-10-16T12:48:07.814Z,1.55
2018-10-16T12:50:37.009Z,1.50
2018-10-16T12:53:06.328Z,1.47
2018-10-16T12:55:35.616Z,1.65
2018-10-16T12:58:05.250Z,1.57
2018-10-16T13:00:34.861Z,1.12
2018-10-16T13:03:03.971Z,1.55
2018-10-16T13:05:33.196Z,1.42
2018-10-16T13:08:02.000Z,1.85
2018-10-16T13:10:30.735Z,1.50
2018-10-16T13:12:59.896Z,5.58
2018-10-16T13:15:29.199Z,1.50
2018-10-16T13:17:57.921Z,2.00
2018-10-16T13:20:26.541Z,2.35
2018-10-16T13:22:55.928Z,1.87
2018-10-16T13:25:24.990Z,2.45
2018-10-16T13:27:54.523Z,3.08
2018-10-16T13:30:24.599Z,2.62
2018-10-16T13:32:53.426Z,2.47
2018-10-16T13:35:22.870Z,2.67
2018-10-16T13:37:52.018Z,2.40
2018-10-16T13:40:20.920Z,2.47
2018-10-16T13:42:49.992Z,2.12
2018-10-16T13:45:18.799Z,2.25
2018-10-16T13:47:47.568Z,1.90
2018-10-16T13:50:17.172Z,2.17
2018-10-16T13:52:46.618Z,2.22
2018-10-16T13:55:15.674Z,1.98
2018-10-16T13:57:44.835Z,1.80
2018-10-16T14:00:18.264Z,1.95
2018-10-16T14:02:48.284Z,2.60
2018-10-16T14:05:17.120Z,2.62
2018-10-16T14:07:46.762Z,3.12
2018-10-16T14:10:16.436Z,3.75
2018-10-16T14:12:46.284Z,2.65
2018-10-16T14:15:16.290Z,2.80
2018-10-16T14:17:45.300Z,2.60
2018-10-16T14:20:15.057Z,3.15
2018-10-16T14:22:44.161Z,3.50
2018-10-16T14:25:14.106Z,3.58
2018-10-16T14:27:44.501Z,4.50
2018-10-16T14:30:15.554Z,4.60
2018-10-16T14:32:44.741Z,4.20
2018-10-16T14:35:14.478Z,4.37
2018-10-16T14:37:43.297Z,4.93
2018-10-16T14:40:13.970Z,5.20
2018-10-16T14:42:43.085Z,5.73
2018-10-16T14:45:12.984Z,5.10
2018-10-16T14:47:41.684Z,5.07
2018-10-16T14:50:12.019Z,5.17
2018-10-16T14:52:40.679Z,4.90
2018-10-16T14:55:10.554Z,4.60
2018-10-16T14:57:40.147Z,5.40
2018-10-16T15:00:11.034Z,5.50
2018-10-16T15:02:39.936Z,5.20
2018-10-16T15:05:09.840Z,4.90
2018-10-16T15:07:38.775Z,5.00
2018-10-16T15:10:08.564Z,5.57
2018-10-16T15:12:38.178Z,5.50
2018-10-16T15:15:08.964Z,5.53
2018-10-16T15:17:38.546Z,5.30
2018-10-16T15:20:09.320Z,5.60
2018-10-16T15:22:38.120Z,5.43
2018-10-16T15:25:08.347Z,5.70
2018-10-16T15:27:37.424Z,6.13
2018-10-16T15:30:07.931Z,6.37
2018-10-16T15:32:36.900Z,5.77
2018-10-16T15:35:07.389Z,5.70
2018-10-16T15:40:04.651Z,6.10
2018-10-16T15:42:33.798Z,5.87
2018-10-16T15:45:02.915Z,5.70
2018-10-16T15:47:31.857Z,5.87
2018-10-16T15:50:01.438Z,7.97
2018-10-16T15:52:30.411Z,9.53
2018-10-16T15:54:59.367Z,9.27
2018-10-16T15:57:28.129Z,11.30
2018-10-16T15:59:57.233Z,6.10
2018-10-16T16:02:26.705Z,6.20
2018-10-16T16:04:55.823Z,6.50
2018-10-16T16:07:24.578Z,7.13
2018-10-16T16:09:54.385Z,6.70
2018-10-16T16:12:23.450Z,5.60
2018-10-16T16:14:52.356Z,6.50
2018-10-16T16:17:22.230Z,6.30
2018-10-16T16:19:51.254Z,6.73
2018-10-16T16:22:20.224Z,7.27
2018-10-16T16:24:49.493Z,6.40
2018-10-16T16:27:19.612Z,7.03
2018-10-16T16:29:49.893Z,6.20
2018-10-16T16:32:19.113Z,6.57
2018-10-16T16:34:48.302Z,6.90
2018-10-16T16:37:17.542Z,6.20
2018-10-16T16:39:46.376Z,6.57
2018-10-16T16:42:15.038Z,7.40
2018-10-16T16:44:44.556Z,7.90
2018-10-16T16:47:13.550Z,7.00
2018-10-16T16:49:42.285Z,7.00
2018-10-16T16:52:11.913Z,6.70
2018-10-16T16:54:40.869Z,7.93
2018-10-16T16:57:09.711Z,7.80
2018-10-16T16:59:38.545Z,7.80
2018-10-16T17:02:08.724Z,7.40
2018-10-16T17:04:38.285Z,7.03
2018-10-16T17:07:07.212Z,8.30
2018-10-16T17:09:36.975Z,7.70
2018-10-16T17:12:06.838Z,7.47
2018-10-16T17:14:35.796Z,6.83
2018-10-16T17:17:04.956Z,8.10
2018-10-16T17:19:34.430Z,7.47
2018-10-16T17:22:03.688Z,7.40
2018-10-16T17:24:32.733Z,7.10
2018-10-16T17:27:01.652Z,8.60
2018-10-16T17:29:30.313Z,8.50
2018-10-16T17:31:59.542Z,8.87
2018-10-16T17:34:28.571Z,11.13
2018-10-16T17:36:57.610Z,7.20
2018-10-16T17:39:27.230Z,7.53
2018-10-16T17:41:56.351Z,7.50
2018-10-16T17:44:25.541Z,7.20
2018-10-16T17:52:37.578Z,8.37
2018-10-16T17:55:07.436Z,7.57
2018-10-16T17:57:37.081Z,8.43
2018-10-16T18:00:08.826Z,7.57
2018-10-16T18:02:38.592Z,8.17
2018-10-16T18:05:07.471Z,8.40
2018-10-16T18:07:36.682Z,8.57
2018-10-16T18:10:06.217Z,8.93
2018-10-16T18:12:35.519Z,8.90
2018-10-16T18:15:05.218Z,8.83
2018-10-16T18:17:34.575Z,9.00
2018-10-16T18:20:03.967Z,9.17
2018-10-16T18:22:33.060Z,9.10
2018-10-16T18:25:02.385Z,9.23
2018-10-16T18:27:31.538Z,9.43
2018-10-16T18:30:00.798Z,9.87
2018-10-16T18:32:30.296Z,10.30
2018-10-16T18:34:59.336Z,8.47
2018-10-16T18:37:28.530Z,8.40
2018-10-16T18:39:57.960Z,9.70
2018-10-16T18:42:27.022Z,8.63
2018-10-16T18:44:56.394Z,9.90
2018-10-16T18:47:26.209Z,8.63
2018-10-16T18:49:55.216Z,9.23
2018-10-16T18:52:25.027Z,9.50
2018-10-16T18:54:54.027Z,9.13
2018-10-16T18:57:22.714Z,9.43
2018-10-16T18:59:52.753Z,8.90
2018-10-16T19:02:21.932Z,10.03
2018-10-16T19:04:50.870Z,9.17
2018-10-16T19:07:19.937Z,9.57
2018-10-16T19:09:49.299Z,9.70
2018-10-16T19:12:18.273Z,9.40
2018-10-16T19:14:47.512Z,9.93
2018-10-16T19:17:16.740Z,8.77
2018-10-16T19:19:46.081Z,9.67
2018-10-16T19:22:15.575Z,9.70
2018-10-16T19:24:44.811Z,11.43
2018-10-16T19:27:13.865Z,10.07
2018-10-16T19:29:42.836Z,10.73
2018-10-16T19:32:12.341Z,9.70
2018-10-16T19:34:41.135Z,10.50
2018-10-16T19:37:10.856Z,11.50
2018-10-16T19:39:40.003Z,11.60
2018-10-16T19:42:08.963Z,9.80
2018-10-16T19:44:38.643Z,10.77
2018-10-16T19:47:07.788Z,10.33
2018-10-16T19:49:37.147Z,12.10
2018-10-16T19:52:06.468Z,12.70
2018-10-16T19:54:35.513Z,11.50
2018-10-16T19:57:04.781Z,11.00
2018-10-16T19:59:34.477Z,11.10
2018-10-16T20:02:03.338Z,9.90
2018-10-16T20:04:32.488Z,10.73
2018-10-16T20:07:01.810Z,10.40
2018-10-16T20:09:30.933Z,9.77
2018-10-16T20:12:00.129Z,10.77
2018-10-16T20:14:29.111Z,11.00
2018-10-16T20:16:58.122Z,10.50
2018-10-16T20:19:27.311Z,12.37
2018-10-16T20:21:56.532Z,11.03
2018-10-16T20:24:25.591Z,10.63
2018-10-16T20:26:54.695Z,10.40
2018-10-16T20:29:23.708Z,11.33
2018-10-16T20:31:52.774Z,11.30
2018-10-16T20:34:22.944Z,10.63
2018-10-16T20:36:52.185Z,10.50
2018-10-16T20:39:21.039Z,10.40
2018-10-16T20:41:50.620Z,10.80
2018-10-16T20:44:19.613Z,10.90
2018-10-16T20:46:48.669Z,11.10
2018-10-16T20:49:18.208Z,11.17
2018-10-16T20:51:47.521Z,11.97
2018-10-16T20:54:16.833Z,12.40
2018-10-16T20:56:45.989Z,12.30
2018-10-16T20:59:16.135Z,11.03
2018-10-16T21:01:46.351Z,13.00
2018-10-16T21:04:15.569Z,11.13
2018-10-16T21:06:45.003Z,11.40
2018-10-16T21:09:13.608Z,10.47
2018-10-16T21:11:43.479Z,11.93
2018-10-16T21:14:12.411Z,11.90
2018-10-16T21:16:41.546Z,11.50
2018-10-16T21:19:11.484Z,12.87
2018-10-16T21:21:39.978Z,11.57
2018-10-16T21:24:09.232Z,11.57
2018-10-16T21:26:37.923Z,11.73
2018-10-16T21:29:06.966Z,10.83
2018-10-16T21:31:36.087Z,12.03
2018-10-16T21:34:05.289Z,11.97
2018-10-16T21:36:34.587Z,13.37
2018-10-16T21:39:06.312Z,12.47
2018-10-16T21:41:35.750Z,11.80
2018-10-16T21:44:05.091Z,12.17
2018-10-16T21:46:34.512Z,12.10
2018-10-16T21:49:03.704Z,12.30
2018-10-16T21:51:33.649Z,11.30
2018-10-16T21:54:02.516Z,11.37
2018-10-16T21:56:32.166Z,12.30
2018-10-16T21:59:01.948Z,10.70
2018-10-16T22:01:36.083Z,9.97
2018-10-16T22:04:05.834Z,10.83
2018-10-16T22:06:36.292Z,11.97
2018-10-16T22:09:07.507Z,11.97
2018-10-16T22:11:36.496Z,12.43
2018-10-16T22:14:06.047Z,13.40
2018-10-16T22:16:35.703Z,12.73
2018-10-16T22:19:04.989Z,12.07
2018-10-16T22:21:33.696Z,11.10
2018-10-16T22:24:02.916Z,11.47
2018-10-16T22:26:31.985Z,12.97
2018-10-16T22:29:01.221Z,11.60
2018-10-16T22:31:30.222Z,12.73
2018-10-16T22:33:59.539Z,11.80
2018-10-16T22:36:28.350Z,11.30
2018-10-16T22:38:57.306Z,11.50
2018-10-16T22:41:27.067Z,12.00
2018-10-16T22:43:56.238Z,11.63
2018-10-16T22:46:25.048Z,11.63
2018-10-16T22:48:53.788Z,10.30
2018-10-16T22:51:22.452Z,11.73
2018-10-16T22:53:51.103Z,12.67
2018-10-16T22:56:20.382Z,13.27
2018-10-16T22:58:50.772Z,12.87
2018-10-16T23:01:21.145Z,12.40
2018-10-16T23:03:50.992Z,13.00
2018-10-16T23:06:20.646Z,12.17
2018-10-16T23:08:50.544Z,11.53
2018-10-16T23:11:19.613Z,12.03
2018-10-16T23:13:49.892Z,12.20
2018-10-16T23:16:19.028Z,11.47
2018-10-16T23:18:48.271Z,11.70
2018-10-16T23:21:17.034Z,12.17
2018-10-16T23:23:45.724Z,11.20
2018-10-16T23:26:16.108Z,11.20
2018-10-16T23:28:45.017Z,11.40
2018-10-16T23:31:17.699Z,10.17
2018-10-16T23:33:46.444Z,10.80
2018-10-16T23:36:15.671Z,11.00
2018-10-16T23:38:45.412Z,10.37
2018-10-16T23:41:14.111Z,12.23
2018-10-16T23:43:43.188Z,11.80
2018-10-16T23:46:12.064Z,11.43
2018-10-16T23:48:40.748Z,11.97
2018-10-16T23:51:09.652Z,10.70
2018-10-16T23:53:38.415Z,11.60
2018-10-16T23:56:07.361Z,10.93
2018-10-16T23:58:36.418Z,11.20
